createdAt,value
2019-04-03T00:01:08.313Z,99072.42
2019-04-03T00:03:34.833Z,99087.72
2019-04-03T00:06:01.092Z,99102.98
2019-04-03T00:08:27.273Z,99116.13
2019-04-03T00:10:53.487Z,99134.20
2019-04-03T00:13:19.649Z,99131.27
2019-04-03T00:15:45.893Z,99118.02
2019-04-03T00:18:12.129Z,99099.80
2019-04-03T00:20:38.359Z,99085.73
2019-04-03T00:23:04.543Z,99087.55
2019-04-03T00:25:30.705Z,99090.23
2019-04-03T00:27:56.847Z,99093.23
2019-04-03T00:30:23.025Z,99096.55
2019-04-03T00:32:49.170Z,99087.08
2019-04-03T00:35:15.377Z,99091.38
2019-04-03T00:37:41.713Z,99096.52
2019-04-03T00:40:08.202Z,99094.03
2019-04-03T00:42:34.358Z,99085.77
2019-04-03T00:45:00.542Z,99080.30
2019-04-03T00:47:26.702Z,99073.83
2019-04-03T00:49:52.846Z,99076.16
2019-04-03T00:52:19.023Z,99085.79
2019-04-03T00:54:45.164Z,99094.58
2019-04-03T00:57:11.348Z,99091.95
2019-04-03T00:59:37.493Z,99071.45
2019-04-03T01:02:03.678Z,99065.86
2019-04-03T01:04:29.821Z,99061.74
2019-04-03T01:06:56.827Z,99057.10
2019-04-03T01:09:24.345Z,99058.94
2019-04-03T01:11:50.539Z,99058.63
2019-04-03T01:14:16.671Z,99065.28
2019-04-03T01:16:42.852Z,99068.28
2019-04-03T01:19:08.977Z,99062.17
2019-04-03T01:21:37.266Z,99056.20
2019-04-03T01:24:03.511Z,99054.56
2019-04-03T01:26:29.656Z,99053.92
2019-04-03T01:28:56.047Z,99046.64
2019-04-03T01:31:22.244Z,99045.33
2019-04-03T01:33:48.402Z,99043.02
2019-04-03T01:36:17.157Z,99039.89
2019-04-03T01:38:42.967Z,99042.36
2019-04-03T01:41:09.119Z,99035.92
2019-04-03T01:43:36.284Z,99026.82
2019-04-03T01:46:02.550Z,99029.64
2019-04-03T01:48:28.923Z,99025.36
2019-04-03T01:50:55.404Z,99018.60
2019-04-03T01:53:21.949Z,99015.30
2019-04-03T01:55:48.107Z,99017.44
2019-04-03T01:58:14.268Z,99008.83
2019-04-03T02:00:40.416Z,99007.00
2019-04-03T02:03:06.784Z,99003.68
2019-04-03T02:05:34.327Z,99003.84
2019-04-03T02:08:00.570Z,99004.17
2019-04-03T02:10:28.517Z,98995.42
2019-04-03T02:12:54.710Z,98999.38
2019-04-03T02:15:21.676Z,98999.21
2019-04-03T02:17:48.692Z,98999.38
2019-04-03T02:20:15.211Z,98998.23
2019-04-03T02:22:41.364Z,98991.12
2019-04-03T02:25:07.642Z,98986.34
2019-04-03T02:27:33.935Z,98982.19
2019-04-03T02:30:00.166Z,98976.10
2019-04-03T02:32:26.672Z,98972.47
2019-04-03T02:34:53.314Z,98975.13
2019-04-03T02:37:19.986Z,98979.61
2019-04-03T02:39:46.117Z,98977.79
2019-04-03T02:42:12.265Z,98981.57
2019-04-03T02:44:38.433Z,98980.59
2019-04-03T02:47:04.603Z,98972.64
2019-04-03T02:49:30.789Z,98967.69
2019-04-03T02:51:57.063Z,98967.05
2019-04-03T02:54:28.886Z,98961.45
2019-04-03T02:56:58.286Z,98953.36
2019-04-03T02:59:26.440Z,98947.91
2019-04-03T03:01:53.064Z,98944.11
2019-04-03T03:04:21.826Z,98937.66
2019-04-03T03:06:48.075Z,98940.79
2019-04-03T03:09:14.744Z,98935.66
2019-04-03T03:11:41.268Z,98934.83
2019-04-03T03:14:08.327Z,98928.08
2019-04-03T03:16:34.829Z,98924.25
2019-04-03T03:19:01.717Z,98921.80
2019-04-03T03:21:30.209Z,98917.48
2019-04-03T03:23:57.270Z,98919.64
2019-04-03T03:26:23.619Z,98921.63
2019-04-03T03:28:50.308Z,98918.99
2019-04-03T03:31:16.565Z,98915.19
2019-04-03T03:33:43.756Z,98914.50
2019-04-03T03:36:10.317Z,98899.30
2019-04-03T03:38:39.749Z,98899.31
2019-04-03T03:41:06.806Z,98897.98
2019-04-03T03:43:37.039Z,98895.84
2019-04-03T03:46:01.634Z,98894.02
2019-04-03T03:48:28.548Z,98893.03
2019-04-03T03:50:57.187Z,98886.09
2019-04-03T03:53:23.545Z,98882.44
2019-04-03T03:55:50.258Z,98877.97
2019-04-03T03:58:17.891Z,98878.16
2019-04-03T04:00:44.604Z,98881.30
2019-04-03T04:03:12.073Z,98874.38
2019-04-03T04:05:38.370Z,98871.38
2019-04-03T04:08:09.374Z,98873.53
2019-04-03T04:10:37.026Z,98875.67
2019-04-03T04:13:03.581Z,98871.86
2019-04-03T04:15:30.918Z,98870.22
2019-04-03T04:17:58.055Z,98867.06
2019-04-03T04:20:24.529Z,98868.72
2019-04-03T04:22:51.549Z,98872.00
2019-04-03T04:25:17.833Z,98873.17
2019-04-03T04:27:44.738Z,98869.69
2019-04-03T04:30:15.593Z,98866.37
2019-04-03T04:32:41.755Z,98867.04
2019-04-03T04:35:10.766Z,98869.35
2019-04-03T04:37:36.473Z,98866.05
2019-04-03T04:40:10.274Z,98867.87
2019-04-03T04:42:36.663Z,98872.80
2019-04-03T04:45:05.823Z,98865.86
2019-04-03T04:47:32.297Z,98863.91
2019-04-03T04:49:58.526Z,98861.59
2019-04-03T04:52:27.137Z,98859.27
2019-04-03T04:54:52.972Z,98863.59
2019-04-03T04:57:19.110Z,98857.47
2019-04-03T04:59:45.559Z,98861.12
2019-04-03T05:02:11.866Z,98863.94
2019-04-03T05:04:38.302Z,98860.96
2019-04-03T05:07:04.474Z,98870.06
2019-04-03T05:09:30.862Z,98879.97
2019-04-03T05:11:57.030Z,98879.63
2019-04-03T05:14:23.182Z,98873.67
2019-04-03T05:16:49.358Z,98880.77
2019-04-03T05:19:18.945Z,98882.59
2019-04-03T05:21:43.547Z,98886.22
2019-04-03T05:24:13.136Z,98882.76
2019-04-03T05:26:37.885Z,98879.59
2019-04-03T05:29:04.733Z,98883.21
2019-04-03T05:31:31.316Z,98880.08
2019-04-03T05:33:57.589Z,98875.25
2019-04-03T05:36:23.825Z,98867.45
2019-04-03T05:38:51.044Z,98864.98
2019-04-03T05:41:18.276Z,98869.42
2019-04-03T05:43:44.581Z,98868.86
2019-04-03T05:46:10.752Z,98861.52
2019-04-03T05:48:37.368Z,98867.16
2019-04-03T05:51:03.724Z,98870.27
2019-04-03T05:53:30.220Z,98876.86
2019-04-03T05:55:56.354Z,98871.84
2019-04-03T05:58:22.511Z,98874.41
2019-04-03T06:00:48.672Z,98873.83
2019-04-03T06:03:14.886Z,98871.73
2019-04-03T06:05:41.841Z,98867.45
2019-04-03T06:08:09.106Z,98866.45
2019-04-03T06:10:37.145Z,98860.37
2019-04-03T06:13:05.526Z,98856.41
2019-04-03T06:15:31.562Z,98858.74
2019-04-03T06:17:57.836Z,98854.11
2019-04-03T06:20:24.208Z,98854.66
2019-04-03T06:22:50.677Z,98856.39
2019-04-03T06:25:17.535Z,98858.11
2019-04-03T06:27:45.799Z,98860.52
2019-04-03T06:30:12.361Z,98861.30
2019-04-03T06:32:39.625Z,98865.84
2019-04-03T06:35:06.294Z,98857.63
2019-04-03T06:37:32.495Z,98851.63
2019-04-03T06:39:58.870Z,98851.30
2019-04-03T06:42:25.339Z,98857.78
2019-04-03T06:44:53.881Z,98851.28
2019-04-03T06:47:19.780Z,98851.41
2019-04-03T06:49:45.950Z,98849.65
2019-04-03T06:52:12.100Z,98846.42
2019-04-03T06:54:38.709Z,98842.97
2019-04-03T06:57:04.979Z,98834.77
2019-04-03T06:59:31.686Z,98841.32
2019-04-03T07:01:58.074Z,98832.73
2019-04-03T07:04:24.314Z,98833.52
2019-04-03T07:06:50.447Z,98835.30
2019-04-03T07:09:24.349Z,98828.72
2019-04-03T07:11:44.655Z,98825.04
2019-04-03T07:14:10.822Z,98823.73
2019-04-03T07:16:38.506Z,98811.53
2019-04-03T07:19:07.644Z,98806.66
2019-04-03T07:21:33.667Z,98805.88
2019-04-03T07:24:00.701Z,98808.17
2019-04-03T07:26:27.558Z,98808.66
2019-04-03T07:28:54.006Z,98805.30
2019-04-03T07:31:21.547Z,98802.24
2019-04-03T07:33:48.515Z,98799.33
2019-04-03T07:36:14.819Z,98800.72
2019-04-03T07:38:41.195Z,98804.44
2019-04-03T07:41:07.340Z,98804.63
2019-04-03T07:43:33.524Z,98806.28
2019-04-03T07:46:00.005Z,98802.63
2019-04-03T07:48:26.218Z,98800.11
2019-04-03T07:50:52.413Z,98806.16
2019-04-03T07:53:19.895Z,98806.70
2019-04-03T07:55:47.146Z,98806.46
2019-04-03T07:58:13.328Z,98795.69
2019-04-03T08:00:39.733Z,98801.19
2019-04-03T08:03:06.398Z,98799.29
2019-04-03T08:05:33.136Z,98804.02
2019-04-03T08:08:01.623Z,98807.27
2019-04-03T08:10:29.369Z,98800.59
2019-04-03T08:12:55.507Z,98801.88
2019-04-03T08:15:21.743Z,98802.13
2019-04-03T08:17:50.007Z,98804.27
2019-04-03T08:20:15.917Z,98806.16
2019-04-03T08:22:42.057Z,98802.81
2019-04-03T08:25:10.707Z,98810.97
2019-04-03T08:27:36.906Z,98813.23
2019-04-03T08:30:08.527Z,98812.04
2019-04-03T08:32:33.995Z,98810.45
2019-04-03T08:35:02.240Z,98810.29
2019-04-03T08:37:31.449Z,98814.98
2019-04-03T08:39:58.620Z,98816.64
2019-04-03T08:42:27.475Z,98819.44
2019-04-03T08:44:52.504Z,98817.20
2019-04-03T08:47:19.816Z,98808.98
2019-04-03T08:49:45.960Z,98805.75
2019-04-03T08:52:14.362Z,98811.00
2019-04-03T08:54:42.176Z,98809.96
2019-04-03T08:57:08.537Z,98816.75
2019-04-03T08:59:34.993Z,98807.73
2019-04-03T09:02:01.478Z,98809.23
2019-04-03T09:04:27.756Z,98808.42
2019-04-03T09:06:54.631Z,98805.89
2019-04-03T09:09:20.858Z,98800.77
2019-04-03T09:11:47.028Z,98808.77
2019-04-03T09:14:13.152Z,98802.16
2019-04-03T09:16:39.360Z,98803.82
2019-04-03T09:19:05.521Z,98799.98
2019-04-03T09:21:31.687Z,98801.96
2019-04-03T09:23:58.356Z,98795.64
2019-04-03T09:26:24.695Z,98791.64
2019-04-03T09:28:50.826Z,98789.90
2019-04-03T09:31:18.953Z,98787.97
2019-04-03T09:33:45.061Z,98786.21
2019-04-03T09:36:11.324Z,98778.12
2019-04-03T09:38:37.595Z,98776.47
2019-04-03T09:41:04.080Z,98777.52
2019-04-03T09:43:30.576Z,98774.63
2019-04-03T09:45:59.279Z,98775.28
2019-04-03T09:48:24.772Z,98760.99
2019-04-03T09:50:51.040Z,98758.81
2019-04-03T09:53:17.183Z,98757.75
2019-04-03T09:55:43.464Z,98750.16
2019-04-03T09:58:09.687Z,98747.71
2019-04-03T10:00:35.839Z,98745.03
2019-04-03T10:03:02.163Z,98752.51
2019-04-03T10:05:30.571Z,98743.42
2019-04-03T10:07:57.150Z,98740.62
2019-04-03T10:10:25.671Z,98743.96
2019-04-03T10:12:54.175Z,98736.62
2019-04-03T10:15:19.725Z,98732.64
2019-04-03T10:17:45.879Z,98731.20
2019-04-03T10:20:13.265Z,98731.77
2019-04-03T10:22:39.912Z,98730.02
2019-04-03T10:25:07.236Z,98730.27
2019-04-03T10:27:33.771Z,98728.15
2019-04-03T10:29:59.984Z,98724.50
2019-04-03T10:32:27.673Z,98717.05
2019-04-03T10:34:57.033Z,98721.41
2019-04-03T10:37:22.355Z,98729.09
2019-04-03T10:39:52.244Z,98718.64
2019-04-03T10:42:16.592Z,98713.86
2019-04-03T10:44:42.810Z,98708.58
2019-04-03T10:47:08.993Z,98707.91
2019-04-03T10:49:35.150Z,98705.91
2019-04-03T10:52:02.077Z,98703.15
2019-04-03T10:54:28.430Z,98697.48
2019-04-03T10:56:54.581Z,98702.84
2019-04-03T10:59:20.835Z,98705.86
2019-04-03T11:01:47.018Z,98694.14
2019-04-03T11:04:13.469Z,98692.89
2019-04-03T11:06:39.606Z,98694.85
2019-04-03T11:09:07.241Z,98693.38
2019-04-03T11:11:33.427Z,98692.13
2019-04-03T11:14:03.029Z,98687.03
2019-04-03T11:16:29.930Z,98682.94
2019-04-03T11:18:59.932Z,98687.23
2019-04-03T11:21:24.317Z,98684.36
2019-04-03T11:23:50.504Z,98679.70
2019-04-03T11:26:24.510Z,98671.88
2019-04-03T11:28:51.443Z,98674.11
2019-04-03T11:31:26.227Z,98671.09
2019-04-03T11:33:46.434Z,98664.17
2019-04-03T11:36:13.317Z,98658.08
2019-04-03T11:38:39.633Z,98658.31
2019-04-03T11:41:14.922Z,98660.13
2019-04-03T11:43:38.605Z,98654.84
2019-04-03T11:46:11.662Z,98646.95
2019-04-03T11:48:38.062Z,98645.75
2019-04-03T11:51:11.352Z,98647.13
2019-04-03T11:53:37.485Z,98648.32
2019-04-03T11:56:04.269Z,98647.67
2019-04-03T11:58:30.924Z,98640.12
2019-04-03T12:00:57.644Z,98639.61
2019-04-03T12:03:24.157Z,98633.78
2019-04-03T12:05:50.413Z,98635.97
2019-04-03T12:08:16.547Z,98628.22
2019-04-03T12:10:42.893Z,98634.27
2019-04-03T12:13:09.114Z,98635.22
2019-04-03T12:15:35.681Z,98627.74
2019-04-03T12:18:02.527Z,98627.14
2019-04-03T12:20:29.474Z,98619.27
2019-04-03T12:22:55.851Z,98613.50
2019-04-03T12:25:22.092Z,98612.95
2019-04-03T12:27:48.315Z,98609.79
2019-04-03T12:30:15.105Z,98607.05
2019-04-03T12:32:47.331Z,98600.72
2019-04-03T12:35:11.618Z,98596.43
2019-04-03T12:37:38.158Z,98590.73
2019-04-03T12:40:07.242Z,98585.72
2019-04-03T12:42:33.527Z,98587.50
2019-04-03T12:44:59.860Z,98581.64
2019-04-03T12:47:28.000Z,98577.53
2019-04-03T12:49:55.139Z,98573.08
2019-04-03T12:52:21.519Z,98569.95
2019-04-03T12:54:48.753Z,98564.69
2019-04-03T12:57:15.909Z,98567.30
2019-04-03T12:59:42.443Z,98566.19
2019-04-03T13:02:08.733Z,98563.88
2019-04-03T13:04:34.979Z,98553.67
2019-04-03T13:07:01.183Z,98554.79
2019-04-03T13:09:27.462Z,98549.95
2019-04-03T13:11:53.964Z,98550.47
2019-04-03T13:14:25.253Z,98544.32
2019-04-03T13:16:48.371Z,98548.02
2019-04-03T13:19:16.007Z,98543.72
2019-04-03T13:21:42.839Z,98537.77
2019-04-03T13:24:10.918Z,98532.78
2019-04-03T13:26:37.133Z,98536.42
2019-04-03T13:29:03.407Z,98532.30
2019-04-03T13:31:29.609Z,98527.20
2019-04-03T13:33:55.814Z,98523.16
2019-04-03T13:36:24.335Z,98525.73
2019-04-03T13:38:51.713Z,98525.25
2019-04-03T13:41:18.245Z,98522.83
2019-04-03T13:43:44.705Z,98525.19
2019-04-03T13:46:11.170Z,98524.02
2019-04-03T13:48:37.770Z,98514.72
2019-04-03T13:51:04.112Z,98514.69
2019-04-03T13:53:30.367Z,98517.80
2019-04-03T13:55:56.509Z,98512.08
2019-04-03T13:58:22.724Z,98507.23
2019-04-03T14:00:58.975Z,98501.80
2019-04-03T14:03:19.324Z,98505.43
2019-04-03T14:05:46.145Z,98505.92
2019-04-03T14:08:12.920Z,98503.73
2019-04-03T14:10:39.714Z,98500.11
2019-04-03T14:13:05.913Z,98506.41
2019-04-03T14:15:32.453Z,98491.38
2019-04-03T14:17:59.289Z,98492.27
2019-04-03T14:20:26.503Z,98488.83
2019-04-03T14:22:53.125Z,98492.36
2019-04-03T14:25:22.545Z,98487.24
2019-04-03T14:27:47.726Z,98482.33
2019-04-03T14:30:14.423Z,98482.91
2019-04-03T14:32:40.542Z,98479.72
2019-04-03T14:35:34.155Z,98480.84
2019-04-03T14:37:36.579Z,98482.13
2019-04-03T14:40:06.072Z,98474.66
2019-04-03T14:42:32.217Z,98468.70
2019-04-03T14:44:58.834Z,98467.59
2019-04-03T14:47:27.139Z,98466.35
2019-04-03T14:49:53.808Z,98464.97
2019-04-03T14:52:19.939Z,98469.14
2019-04-03T14:54:46.317Z,98474.95
2019-04-03T14:57:20.203Z,98464.62
2019-04-03T14:59:41.423Z,98449.92
2019-04-03T15:02:07.916Z,98455.70
2019-04-03T15:04:37.465Z,98450.76
2019-04-03T15:07:08.385Z,98450.14
2019-04-03T15:09:31.160Z,98454.04
2019-04-03T15:11:57.343Z,98444.09
2019-04-03T15:14:23.620Z,98448.15
2019-04-03T15:16:49.746Z,98448.73
2019-04-03T15:19:15.959Z,98441.37
2019-04-03T15:21:42.106Z,98444.16
2019-04-03T15:24:10.915Z,98444.52
2019-04-03T15:26:36.362Z,98433.56
2019-04-03T15:29:03.620Z,98437.17
2019-04-03T15:31:30.023Z,98427.72
2019-04-03T15:33:56.714Z,98437.03
2019-04-03T15:36:23.346Z,98431.16
2019-04-03T15:38:49.927Z,98431.89
2019-04-03T15:41:23.149Z,98424.73
2019-04-03T15:43:51.431Z,98425.98
2019-04-03T15:46:17.386Z,98425.95
2019-04-03T15:48:43.572Z,98418.62
2019-04-03T15:51:16.683Z,98426.05
2019-04-03T15:53:42.876Z,98410.85
2019-04-03T15:56:11.783Z,98413.80
2019-04-03T15:58:37.522Z,98414.80
2019-04-03T16:01:06.861Z,98414.22
2019-04-03T16:03:32.178Z,98406.94
2019-04-03T16:05:58.440Z,98404.27
2019-04-03T16:08:24.597Z,98405.56
2019-04-03T16:10:50.814Z,98399.22
2019-04-03T16:13:16.978Z,98401.76
2019-04-03T16:15:43.198Z,98396.27
2019-04-03T16:18:09.337Z,98394.84
2019-04-03T16:20:36.102Z,98391.94
2019-04-03T16:23:03.820Z,98395.07
2019-04-03T16:25:31.034Z,98396.54
2019-04-03T16:27:58.774Z,98395.92
2019-04-03T16:30:25.400Z,98396.58
2019-04-03T16:32:56.612Z,98394.72
2019-04-03T16:35:21.928Z,98392.19
2019-04-03T16:37:50.005Z,98390.36
2019-04-03T16:40:16.309Z,98386.73
2019-04-03T16:42:43.258Z,98392.89
2019-04-03T16:45:10.517Z,98384.52
2019-04-03T16:47:37.060Z,98382.17
2019-04-03T16:50:06.427Z,98385.52
2019-04-03T16:52:36.230Z,98377.78
2019-04-03T16:55:00.997Z,98376.48
2019-04-03T16:57:27.499Z,98378.78
2019-04-03T16:59:54.069Z,98376.86
2019-04-03T17:02:23.858Z,98369.13
2019-04-03T17:04:48.532Z,98368.52
2019-04-03T17:07:14.805Z,98368.59
2019-04-03T17:09:40.973Z,98368.10
2019-04-03T17:12:07.145Z,98373.25
2019-04-03T17:14:33.302Z,98371.41
2019-04-03T17:16:59.565Z,98375.16
2019-04-03T17:19:25.731Z,98371.56
2019-04-03T17:21:51.952Z,98369.94
2019-04-03T17:24:18.806Z,98374.38
2019-04-03T17:26:51.530Z,98370.35
2019-04-03T17:29:15.771Z,98373.92
2019-04-03T17:31:42.077Z,98376.17
2019-04-03T17:34:08.560Z,98373.66
2019-04-03T17:36:34.733Z,98372.84
2019-04-03T17:39:04.645Z,98375.84
2019-04-03T17:41:30.616Z,98370.16
2019-04-03T17:43:57.205Z,98369.89
2019-04-03T17:46:23.351Z,98366.38
2019-04-03T17:48:49.548Z,98365.30
2019-04-03T17:51:15.962Z,98363.92
2019-04-03T17:53:42.163Z,98364.08
2019-04-03T17:56:08.539Z,98367.77
2019-04-03T17:58:34.751Z,98363.65
2019-04-03T18:01:00.899Z,98369.35
2019-04-03T18:03:27.132Z,98368.49
2019-04-03T18:05:56.662Z,98370.11
2019-04-03T18:08:21.607Z,98371.75
2019-04-03T18:10:47.720Z,98367.16
2019-04-03T18:13:13.969Z,98366.09
2019-04-03T18:15:40.109Z,98366.09
2019-04-03T18:18:07.026Z,98372.86
2019-04-03T18:20:33.251Z,98373.00
2019-04-03T18:22:59.544Z,98375.04
2019-04-03T18:25:26.859Z,98375.77
2019-04-03T18:27:56.246Z,98378.67
2019-04-03T18:30:22.982Z,98378.36
2019-04-03T18:32:49.216Z,98379.74
2019-04-03T18:35:16.587Z,98378.09
2019-04-03T18:37:42.721Z,98371.10
2019-04-03T18:40:10.119Z,98378.09
2019-04-03T18:42:36.315Z,98374.44
2019-04-03T18:45:04.709Z,98374.75
2019-04-03T18:47:40.506Z,98371.41
2019-04-03T18:50:02.849Z,98367.94
2019-04-03T18:52:27.644Z,98365.11
2019-04-03T18:54:53.929Z,98370.30
2019-04-03T18:57:20.021Z,98369.27
2019-04-03T18:59:46.595Z,98369.63
2019-04-03T19:02:12.747Z,98363.91
2019-04-03T19:04:39.171Z,98364.35
2019-04-03T19:07:05.687Z,98366.58
2019-04-03T19:09:32.285Z,98363.55
2019-04-03T19:12:07.946Z,98360.94
2019-04-03T19:14:29.443Z,98363.20
2019-04-03T19:16:54.896Z,98359.49
2019-04-03T19:19:22.854Z,98357.47
2019-04-03T19:21:49.420Z,98356.27
2019-04-03T19:24:16.012Z,98353.50
2019-04-03T19:26:42.157Z,98363.63
2019-04-03T19:29:08.385Z,98363.20
2019-04-03T19:31:34.533Z,98368.97
2019-04-03T19:34:01.115Z,98363.86
2019-04-03T19:36:29.666Z,98366.15
2019-04-03T19:38:55.513Z,98371.98
2019-04-03T19:41:22.010Z,98367.98
2019-04-03T19:43:48.260Z,98367.41
2019-04-03T19:46:14.646Z,98364.36
2019-04-03T19:48:42.184Z,98365.41
2019-04-03T19:51:08.328Z,98359.91
2019-04-03T19:53:35.801Z,98363.02
2019-04-03T19:56:02.287Z,98360.88
2019-04-03T19:58:29.527Z,98360.55
2019-04-03T20:00:56.280Z,98359.18
2019-04-03T20:03:22.438Z,98362.45
2019-04-03T20:05:50.882Z,98359.59
2019-04-03T20:08:18.281Z,98352.75
2019-04-03T20:10:45.020Z,98353.03
2019-04-03T20:13:11.451Z,98346.96
2019-04-03T20:15:37.650Z,98347.06
2019-04-03T20:18:03.974Z,98347.27
2019-04-03T20:20:33.376Z,98350.34
2019-04-03T20:22:58.270Z,98347.44
2019-04-03T20:25:24.763Z,98351.88
2019-04-03T20:27:52.096Z,98354.63
2019-04-03T20:30:18.680Z,98362.24
2019-04-03T20:32:45.060Z,98360.84
2019-04-03T20:35:11.663Z,98358.27
2019-04-03T20:37:37.894Z,98362.55
2019-04-03T20:40:05.246Z,98363.98
2019-04-03T20:42:31.452Z,98369.26
2019-04-03T20:44:57.588Z,98362.39
2019-04-03T20:47:24.972Z,98363.30
2019-04-03T20:49:51.834Z,98360.71
2019-04-03T20:52:18.027Z,98359.64
2019-04-03T20:54:44.214Z,98353.70
2019-04-03T20:57:13.318Z,98352.16
2019-04-03T20:59:38.462Z,98361.20
2019-04-03T21:02:08.076Z,98361.80
2019-04-03T21:04:33.014Z,98365.88
2019-04-03T21:06:59.243Z,98365.89
2019-04-03T21:09:25.695Z,98365.77
2019-04-03T21:11:52.142Z,98377.30
2019-04-03T21:14:18.271Z,98369.56
2019-04-03T21:16:47.876Z,98367.12
2019-04-03T21:19:12.884Z,98380.14
2019-04-03T21:21:39.082Z,98377.34
2019-04-03T21:24:05.243Z,98378.22
2019-04-03T21:26:31.437Z,98370.89
2019-04-03T21:28:57.577Z,98372.48
2019-04-03T21:31:25.756Z,98371.41
2019-04-03T21:33:51.947Z,98373.70
2019-04-03T21:36:18.214Z,98375.77
2019-04-03T21:38:44.355Z,98373.56
2019-04-03T21:41:10.494Z,98374.48
2019-04-03T21:43:36.694Z,98369.85
2019-04-03T21:46:02.923Z,98374.09
2019-04-03T21:48:29.409Z,98369.63
2019-04-03T21:50:55.551Z,98364.99
2019-04-03T21:53:24.185Z,98367.87
2019-04-03T21:55:49.800Z,98371.91
2019-04-03T21:58:15.998Z,98372.77
2019-04-03T22:01:03.744Z,98370.66
2019-04-03T22:03:29.957Z,98372.33
2019-04-03T22:05:56.616Z,98366.55
2019-04-03T22:08:22.907Z,98362.20
2019-04-03T22:10:50.454Z,98359.97
2019-04-03T22:13:16.890Z,98359.41
2019-04-03T22:15:45.336Z,98359.92
2019-04-03T22:18:11.412Z,98362.19
2019-04-03T22:20:37.551Z,98362.56
2019-04-03T22:23:04.799Z,98368.44
2019-04-03T22:25:31.716Z,98366.45
2019-04-03T22:27:58.333Z,98365.67
2019-04-03T22:30:24.501Z,98365.67
2019-04-03T22:32:50.766Z,98359.75
2019-04-03T22:35:16.947Z,98360.31
2019-04-03T22:37:43.190Z,98366.70
2019-04-03T22:40:10.753Z,98370.79
2019-04-03T22:42:37.274Z,98374.09
2019-04-03T22:45:04.116Z,98373.16
2019-04-03T22:47:30.322Z,98371.47
2019-04-03T22:49:56.451Z,98362.26
2019-04-03T22:52:22.652Z,98358.42
2019-04-03T22:54:48.789Z,98359.66
2019-04-03T22:57:15.571Z,98356.25
2019-04-03T22:59:41.697Z,98348.72
2019-04-03T23:02:07.911Z,98351.80
2019-04-03T23:04:34.189Z,98348.77
2019-04-03T23:07:00.617Z,98351.17
2019-04-03T23:09:26.846Z,98352.08
2019-04-03T23:11:52.988Z,98349.20
2019-04-03T23:14:19.190Z,98347.52
2019-04-03T23:16:45.614Z,98360.11
2019-04-03T23:19:12.399Z,98354.16
2019-04-03T23:21:38.603Z,98354.47
2019-04-03T23:24:04.840Z,98358.14
2019-04-03T23:26:32.153Z,98354.49
2019-04-03T23:28:59.076Z,98355.67
2019-04-03T23:31:25.204Z,98354.87
2019-04-03T23:33:51.474Z,98350.08
2019-04-03T23:36:17.694Z,98348.98
2019-04-03T23:38:44.206Z,98346.23
2019-04-03T23:41:10.349Z,98341.28
2019-04-03T23:43:39.250Z,98334.75
2019-04-03T23:46:04.588Z,98329.86
2019-04-03T23:48:30.784Z,98329.45
2019-04-03T23:50:56.943Z,98324.23
2019-04-03T23:53:23.436Z,98317.41
2019-04-03T23:55:49.572Z,98319.33
2019-04-03T23:58:16.008Z,98317.91
